Time;durP1;ratioP1;P1;durP2;ratioP2;P2;SDS_P1;SDS_P2;PMS_P1;PMS_P2;Temp;Humidity;BMP_temperature;BMP_pressure;BME280_temperature;BME280_humidity;BME280_pressure;Samples;Min_cycle;Max_cycle;Signal;HPM_P1;HPM_P2
2022/09/04 00:01:53;;;;;;;16.93;9.73;;;;;;;16.19;100.00;97999.59;5127545;27;20030;-82
2022/09/04 00:04:18;;;;;;;;;;;;;;;16.18;100.00;98003.28;5108396;28;20024;-81
2022/09/04 00:07:05;;;;;;;12.90;8.15;;;;;;;16.15;100.00;98000.81;5116360;27;19911;-81
2022/09/04 00:09:47;;;;;;;12.00;7.40;;;;;;;16.09;100.00;97995.88;5102151;28;20067;-81
2022/09/04 00:12:13;;;;;;;16.08;8.65;;;;;;;15.99;100.00;97979.53;5111712;28;20050;-81
2022/09/04 00:14:39;;;;;;;16.10;8.80;;;;;;;16.01;100.00;97993.78;5113690;27;20069;-80
2022/09/04 00:17:26;;;;;;;19.17;8.38;;;;;;;15.97;100.00;97992.28;5117318;27;20509;-81
2022/09/04 00:20:00;;;;;;;18.58;8.90;;;;;;;16.09;100.00;98006.66;5130615;27;20523;-81
2022/09/04 00:26:16;;;;;;;15.88;9.07;;;;;;;16.20;100.00;98017.50;5047687;28;20528;-84
2022/09/04 00:30:21;;;;;;;;;;;;;;;;;;;;;
2022/09/04 00:36:33;;;;;;;;;;;;;;;;;;;;;
2022/09/04 01:14:45;;;;;;;12.00;7.97;;;;;;;15.92;100.00;97937.81;4825694;29;20077;-82
2022/09/04 01:32:08;;;;;;;16.60;7.60;;;;;;;16.14;100.00;97964.00;4866689;29;20024;-80
2022/09/04 01:35:05;;;;;;;11.80;7.70;;;;;;;16.41;100.00;97996.94;4938128;28;20046;-81
2022/09/04 01:38:22;;;;;;;16.13;7.78;;;;;;;16.43;100.00;97992.28;5023697;28;20032;-82
2022/09/04 01:40:52;;;;;;;11.30;7.32;;;;;;;16.41;100.00;97996.06;5041872;28;20040;-82
2022/09/04 01:43:20;;;;;;;13.88;8.30;;;;;;;16.34;100.00;97982.19;5075232;28;20039;-81
2022/09/04 01:46:11;;;;;;;18.25;7.88;;;;;;;16.34;100.00;97984.91;5075408;28;20147;-81
2022/09/04 01:48:55;;;;;;;12.35;7.75;;;;;;;16.33;100.00;97983.19;5087255;27;20050;-81
2022/09/04 01:51:42;;;;;;;14.57;7.53;;;;;;;16.32;100.00;97986.84;5130094;27;20028;-81
2022/09/04 01:54:43;;;;;;;12.15;7.90;;;;;;;16.35;100.00;97986.63;5119903;27;20028;-82
2022/09/04 01:57:39;;;;;;;13.38;7.63;;;;;;;16.34;100.00;97973.22;5095793;28;20046;-81
2022/09/04 02:00:11;;;;;;;10.23;7.32;;;;;;;16.41;100.00;97982.56;5079103;28;20406;-81
2022/09/04 02:02:46;;;;;;;13.07;7.93;;;;;;;16.41;100.00;97983.44;5076257;28;20035;-81
2022/09/04 02:05:56;;;;;;;15.93;8.15;;;;;;;16.34;100.00;97984.03;5095363;28;20129;-81
2022/09/04 02:08:49;;;;;;;13.13;7.68;;;;;;;16.43;100.00;97988.69;5070101;28;20031;-81
2022/09/04 02:11:25;;;;;;;10.30;6.88;;;;;;;16.42;100.00;97982.47;5110312;28;20034;-81
2022/09/04 02:13:55;;;;;;;11.35;7.43;;;;;;;16.44;100.00;97985.91;5075838;28;20142;-81
2022/09/04 02:16:29;;;;;;;11.65;7.97;;;;;;;16.43;100.00;97984.16;5095827;28;20037;-81
2022/09/04 02:19:14;;;;;;;13.20;7.80;;;;;;;16.43;100.00;97986.88;5093130;28;20054;-81
2022/09/04 02:21:48;;;;;;;11.13;7.55;;;;;;;16.45;100.00;97970.56;5092894;28;20044;-80
2022/09/04 02:24:43;;;;;;;11.13;7.20;;;;;;;16.49;100.00;97985.56;5078575;28;20494;-81
2022/09/04 02:27:26;;;;;;;11.25;7.60;;;;;;;16.42;100.00;97979.78;5080203;28;20035;-80
2022/09/04 02:30:00;;;;;;;13.00;7.30;;;;;;;16.33;100.00;97972.41;5113307;28;20368;-80
2022/09/04 02:32:41;;;;;;;11.13;7.07;;;;;;;16.42;100.00;97977.06;5112223;27;20016;-81
2022/09/04 02:35:21;;;;;;;12.10;7.40;;;;;;;16.37;100.00;97973.84;5112762;28;20019;-81
2022/09/04 02:38:05;;;;;;;16.58;8.18;;;;;;;16.34;100.00;97984.91;5130587;27;20030;-81
2022/09/04 02:40:59;;;;;;;16.42;8.25;;;;;;;16.32;100.00;97984.16;5134056;27;20038;-80
2022/09/04 02:44:06;;;;;;;12.40;7.88;;;;;;;16.35;100.00;97989.31;5118695;27;20608;-81
2022/09/04 02:46:41;;;;;;;18.02;8.18;;;;;;;16.37;100.00;97973.84;5053939;28;20058;-81
2022/09/04 02:49:25;;;;;;;14.40;8.18;;;;;;;16.38;100.00;97975.59;5114710;27;20127;-81
2022/09/04 02:52:11;;;;;;;13.68;7.97;;;;;;;16.36;100.00;97966.75;5130751;27;20023;-80
2022/09/04 02:55:03;;;;;;;16.88;7.40;;;;;;;16.33;100.00;97953.50;5130254;27;20110;-81
2022/09/04 02:58:10;;;;;;;14.35;7.80;;;;;;;16.33;100.00;97950.78;5106993;27;20027;-81
2022/09/04 03:00:53;;;;;;;13.75;8.48;;;;;;;16.40;100.00;97965.50;5093558;28;20044;-81
2022/09/04 03:03:36;;;;;;;18.10;9.02;;;;;;;16.35;100.00;97961.47;5113152;28;20556;-81
2022/09/04 03:06:10;;;;;;;15.93;8.88;;;;;;;16.26;100.00;97963.91;5131752;27;20019;-81
2022/09/04 03:09:07;;;;;;;14.98;8.48;;;;;;;16.33;100.00;97966.13;5099513;28;20524;-81
2022/09/04 03:11:54;;;;;;;21.27;9.07;;;;;;;16.20;100.00;97969.78;5091058;27;20483;-82
2022/09/04 03:14:33;;;;;;;18.90;8.90;;;;;;;16.27;100.00;97978.28;5099904;27;20027;-81
2022/09/04 03:17:22;;;;;;;20.40;8.88;;;;;;;16.35;100.00;97983.91;5115354;27;20023;-81
2022/09/04 03:19:56;;;;;;;12.20;8.00;;;;;;;16.31;100.00;97989.66;5097556;27;20020;-80
2022/09/04 03:22:44;;;;;;;15.10;7.75;;;;;;;16.25;100.00;97996.41;5132194;27;20034;-81
2022/09/04 03:25:35;;;;;;;12.10;6.80;;;;;;;16.23;100.00;97995.69;5131586;27;20488;-81
2022/09/04 03:28:01;;;;;;;17.00;7.28;;;;;;;16.11;100.00;97985.84;5112722;27;20028;-81
2022/09/04 03:30:28;;;;;;;13.68;7.05;;;;;;;16.17;100.00;97988.06;5099911;28;20108;-81
2022/09/04 03:33:23;;;;;;;13.32;7.20;;;;;;;16.15;100.00;97981.94;5112020;27;20431;-80
2022/09/04 03:36:19;;;;;;;17.63;6.82;;;;;;;16.12;100.00;97995.63;5114521;27;20035;-80
2022/09/04 03:39:09;;;;;;;10.30;6.63;;;;;;;16.11;100.00;97994.78;5119146;27;20371;-80
2022/09/04 03:42:07;;;;;;;16.08;7.75;;;;;;;15.94;100.00;97970.94;5114296;27;20047;-80
2022/09/04 03:45:04;;;;;;;13.90;7.13;;;;;;;16.07;100.00;97981.63;5122641;27;20028;-80
2022/09/04 03:47:39;;;;;;;13.13;7.47;;;;;;;16.08;100.00;97989.63;5119395;27;20024;-80
2022/09/04 03:50:24;;;;;;;14.50;8.23;;;;;;;16.01;100.00;97992.91;5120653;27;20050;-81
2022/09/04 03:52:56;;;;;;;14.35;7.82;;;;;;;16.08;100.00;97988.78;5093023;28;20055;-81
2022/09/04 03:56:00;;;;;;;13.35;7.55;;;;;;;16.05;100.00;97994.41;5115509;27;20049;-80
2022/09/04 03:58:55;;;;;;;12.68;8.23;;;;;;;16.08;100.00;97988.78;5113903;27;20459;-80
2022/09/04 04:01:45;;;;;;;14.25;8.95;;;;;;;16.12;100.00;97991.09;5112192;27;20019;-80
2022/09/04 04:04:34;;;;;;;14.70;7.72;;;;;;;16.19;100.00;98003.16;5122746;27;20127;-80
2022/09/04 04:07:15;;;;;;;15.55;8.50;;;;;;;16.15;100.00;98007.06;5130427;27;20023;-80
2022/09/04 04:10:05;;;;;;;20.65;8.93;;;;;;;16.18;100.00;98006.81;5112255;28;20043;-80
2022/09/04 04:12:45;;;;;;;15.30;7.45;;;;;;;16.25;100.00;98018.00;5116586;27;20027;-80
2022/09/04 04:15:27;;;;;;;15.43;7.45;;;;;;;16.31;100.00;98011.25;5122295;27;20547;-80
2022/09/04 04:18:01;;;;;;;12.75;7.63;;;;;;;16.31;100.00;98020.22;5097330;27;20089;-80
2022/09/04 04:20:38;;;;;;;15.82;7.03;;;;;;;16.40;100.00;98016.81;5113915;27;20035;-80
2022/09/04 04:23:35;;;;;;;13.55;7.47;;;;;;;16.32;100.00;98008.47;5120624;27;20027;-81
2022/09/04 04:26:08;;;;;;;15.43;7.28;;;;;;;16.34;100.00;98036.19;5112076;28;20114;-83
2022/09/04 04:29:10;;;;;;;14.20;7.60;;;;;;;16.33;100.00;98042.59;5127680;27;20030;-81
2022/09/04 04:31:39;;;;;;;;;;;;;;;16.31;100.00;98044.53;5111908;28;20455;-80
2022/09/04 04:34:25;;;;;;;13.65;8.23;;;;;;;16.29;100.00;98057.31;5117764;27;20006;-81
2022/09/04 04:37:18;;;;;;;18.63;9.10;;;;;;;16.22;100.00;98051.50;5119429;28;20533;-82
2022/09/04 04:40:09;;;;;;;15.98;8.63;;;;;;;16.28;100.00;98060.97;5111285;28;20498;-82
2022/09/04 04:42:52;;;;;;;20.08;9.38;;;;;;;16.40;100.00;98069.94;5093505;28;20081;-82
2022/09/04 04:48:22;;;;;;;17.05;8.55;;;;;;;16.37;100.00;98073.75;5119537;27;20066;-80
2022/09/04 04:51:16;;;;;;;14.13;9.18;;;;;;;16.49;100.00;98075.50;5121547;27;20391;-83
2022/09/04 04:54:12;;;;;;;13.98;8.45;;;;;;;16.50;100.00;98070.97;5111391;28;20102;-81
2022/09/04 04:57:27;;;;;;;20.52;8.63;;;;;;;16.54;100.00;98067.97;5120217;27;20031;-81
2022/09/04 05:00:05;;;;;;;16.02;8.00;;;;;;;16.65;100.00;98065.28;5094665;28;20043;-80
2022/09/04 05:02:41;;;;;;;11.80;7.22;;;;;;;16.64;100.00;98052.75;5110994;28;20031;-81
2022/09/04 05:05:17;;;;;;;14.25;8.43;;;;;;;16.64;100.00;98057.31;5099813;28;20023;-81
2022/09/04 05:07:59;;;;;;;11.88;7.65;;;;;;;16.63;100.00;98055.56;5112851;28;20027;-80
2022/09/04 05:10:59;;;;;;;14.57;9.10;;;;;;;16.62;100.00;98067.34;5094686;28;20084;-81
2022/09/04 05:13:57;;;;;;;20.40;7.90;;;;;;;16.68;100.00;98050.66;5123032;27;20388;-81
2022/09/04 05:16:33;;;;;;;11.05;7.32;;;;;;;16.71;100.00;98047.72;5102083;28;20119;-81
2022/09/04 05:19:48;;;;;;;12.07;8.05;;;;;;;16.78;100.00;98049.84;5118438;28;20560;-82
2022/09/04 05:22:31;;;;;;;12.27;8.35;;;;;;;16.82;100.00;98055.84;5072451;28;20074;-82
2022/09/04 05:25:09;;;;;;;14.95;8.63;;;;;;;16.91;100.00;98038.91;5129057;27;20094;-82
2022/09/04 05:28:08;;;;;;;14.85;8.70;;;;;;;16.92;100.00;98045.19;5131620;27;20551;-81
2022/09/04 05:30:46;;;;;;;19.50;9.63;;;;;;;17.02;100.00;98047.00;5131152;27;20031;-81
2022/09/04 05:33:36;;;;;;;17.63;9.20;;;;;;;17.13;100.00;98049.75;5114860;28;20027;-81
2022/09/04 05:36:04;;;;;;;12.68;7.88;;;;;;;17.31;100.00;98055.50;5130093;27;20029;-81
2022/09/04 05:38:42;;;;;;;13.40;8.32;;;;;;;17.32;100.00;98036.44;5131182;27;20110;-81
2022/09/04 05:41:34;;;;;;;18.13;9.25;;;;;;;17.42;100.00;98052.78;5130006;27;20026;-82
2022/09/04 05:44:25;;;;;;;14.40;9.07;;;;;;;17.35;100.00;98040.72;5101536;28;20034;-81
2022/09/04 05:46:53;;;;;;;17.38;10.60;;;;;;;17.40;100.00;98040.38;5119864;27;20505;-81
2022/09/04 05:49:39;;;;;;;19.33;10.38;;;;;;;17.45;100.00;98043.53;5124670;27;20066;-81
2022/09/04 05:52:08;;;;;;;19.00;10.82;;;;;;;17.47;100.00;98044.28;5126250;27;20024;-82
2022/09/04 05:54:36;;;;;;;22.45;12.20;;;;;;;17.50;100.00;98031.38;5122820;27;20046;-83
2022/09/04 05:57:27;;;;;;;18.38;11.32;;;;;;;17.51;100.00;98027.66;5133378;27;20031;-81
2022/09/04 06:00:17;;;;;;;18.48;11.50;;;;;;;17.39;100.00;98028.69;5118842;27;20032;-82
2022/09/04 06:02:54;;;;;;;15.68;10.52;;;;;;;17.49;100.00;98045.03;5100987;28;20019;-81
2022/09/04 06:05:32;;;;;;;16.65;10.65;;;;;;;17.59;100.00;98046.03;5132225;27;20551;-81
2022/09/04 06:08:19;;;;;;;20.40;11.77;;;;;;;17.60;100.00;98047.72;5119520;27;20418;-81
2022/09/04 06:11:06;;;;;;;21.48;13.00;;;;;;;17.65;100.00;98034.69;5117235;27;20447;-87
2022/09/04 06:13:36;;;;;;;26.38;11.15;;;;;;;17.75;100.00;98035.63;5123011;27;20059;-87
2022/09/04 06:16:21;;;;;;;16.83;10.93;;;;;;;17.86;100.00;98030.19;5113114;28;20031;-88
2022/09/04 06:19:08;;;;;;;22.65;10.73;;;;;;;17.87;100.00;98018.41;5120069;27;20019;-89
2022/09/04 06:21:39;;;;;;;21.95;11.18;;;;;;;17.80;100.00;98012.63;5102365;27;20044;-80
2022/09/04 06:24:26;;;;;;;16.48;11.65;;;;;;;17.92;100.00;97994.50;5117377;27;20038;-80
2022/09/04 06:27:20;;;;;;;30.95;12.32;;;;;;;18.06;100.00;98007.72;5123016;27;20118;-79
2022/09/04 06:30:05;;;;;;;16.42;11.68;;;;;;;18.05;100.00;98016.84;5127496;27;20019;-80
2022/09/04 06:33:01;;;;;;;15.65;10.48;;;;;;;18.15;100.00;98014.22;5101690;27;20046;-82
2022/09/04 06:35:43;;;;;;;20.00;10.27;;;;;;;18.22;100.00;98007.28;5097693;28;20024;-83
2022/09/04 06:39:14;;;;;;;18.50;11.35;;;;;;;18.24;100.00;97999.91;5121008;27;20026;-81
2022/09/04 06:42:11;;;;;;;17.60;10.50;;;;;;;18.43;100.00;98010.84;5113572;27;20489;-83
2022/09/04 06:44:52;;;;;;;19.05;10.70;;;;;;;18.60;100.00;98007.56;5117527;27;20034;-82
2022/09/04 06:47:36;;;;;;;15.35;9.98;;;;;;;18.75;100.00;98006.25;5120198;27;20023;-82
2022/09/04 06:50:20;;;;;;;17.08;10.43;;;;;;;18.94;100.00;98006.34;5119476;27;20094;-82
2022/09/04 06:53:13;;;;;;;15.93;10.65;;;;;;;18.94;100.00;98000.06;5113283;27;20092;-81
2022/09/04 06:56:03;;;;;;;13.40;9.40;;;;;;;19.05;100.00;97993.66;5107677;27;20027;-83
2022/09/04 06:58:53;;;;;;;13.82;9.35;;;;;;;19.04;100.00;98000.94;5112239;27;20019;-81
2022/09/04 07:01:39;;;;;;;15.15;9.82;;;;;;;19.23;100.00;98002.88;5117125;27;20504;-81
2022/09/04 07:04:25;;;;;;;16.23;10.10;;;;;;;19.31;100.00;98003.06;5130249;27;20038;-82
2022/09/04 07:07:30;;;;;;;15.30;9.75;;;;;;;19.44;100.00;98009.97;5135842;27;20083;-83
2022/09/04 07:10:07;;;;;;;20.65;9.68;;;;;;;18.95;100.00;97990.91;5118593;28;20059;-83
2022/09/04 07:12:41;;;;;;;16.92;9.73;;;;;;;19.10;100.00;97992.28;5128413;27;20382;-81
2022/09/04 07:15:43;;;;;;;15.73;10.43;;;;;;;19.19;100.00;97998.72;5121931;27;20466;-81
2022/09/04 07:18:37;;;;;;;16.33;9.82;;;;;;;19.58;100.00;97994.28;5121723;27;20092;-82
2022/09/04 07:21:25;;;;;;;18.35;11.10;;;;;;;19.69;100.00;97997.72;5110462;27;20619;-81
2022/09/04 07:23:56;;;;;;;18.25;12.20;;;;;;;19.80;100.00;97994.91;5091283;27;20031;-82
2022/09/04 07:26:28;;;;;;;18.55;10.95;;;;;;;19.91;100.00;97996.63;5115777;27;20054;-82
2022/09/04 07:29:21;;;;;;;20.13;10.35;;;;;;;20.12;100.00;97993.78;5122271;27;20019;-82
2022/09/04 07:32:18;;;;;;;18.98;11.50;;;;;;;20.30;100.00;97994.81;5119662;27;20035;-82
2022/09/04 07:34:53;;;;;;;20.23;12.73;;;;;;;20.34;100.00;97994.34;5095972;27;20038;-82
2022/09/04 07:37:45;;;;;;;18.63;12.65;;;;;;;20.65;100.00;98000.47;5113738;27;20531;-82
2022/09/04 07:40:42;;;;;;;20.50;12.55;;;;;;;20.94;100.00;98003.97;5141939;27;20051;-82
2022/09/04 07:43:26;;;;;;;18.38;10.73;;;;;;;20.84;100.00;97997.69;5089418;27;20045;-80
2022/09/04 07:46:02;;;;;;;11.95;8.38;;;;;;;20.65;100.00;97991.44;5108836;27;20027;-82
2022/09/04 07:48:33;;;;;;;231.63;83.72;;;;;;;21.25;100.00;98007.31;5117589;27;20027;-82
2022/09/04 07:51:10;;;;;;;31.77;16.05;;;;;;;21.94;96.67;97998.59;5118029;27;20042;-82
2022/09/04 07:53:59;;;;;;;11.90;8.02;;;;;;;22.70;90.45;97999.84;5120347;27;20478;-82
2022/09/04 07:56:43;;;;;;;10.40;7.35;;;;;;;23.58;85.03;98006.84;5107376;27;20478;-81
2022/09/04 07:59:39;;;;;;;9.20;6.38;;;;;;;25.17;76.60;98005.44;5121046;27;20497;-80
2022/09/04 08:02:05;;;;;;;10.38;6.85;;;;;;;25.93;72.53;98008.44;5108703;28;20028;-81
2022/09/04 08:04:53;;;;;;;8.45;7.15;;;;;;;26.21;69.10;97993.19;5119794;27;20035;-82
2022/09/04 08:07:28;;;;;;;11.95;7.15;;;;;;;26.12;69.36;98007.97;5122386;27;20386;-81
2022/09/04 08:10:00;;;;;;;9.15;6.70;;;;;;;25.50;72.63;98007.06;5107682;27;20031;-82
2022/09/04 08:12:47;;;;;;;11.00;8.13;;;;;;;25.91;72.10;98006.91;5111423;27;20038;-79
2022/09/04 08:15:18;;;;;;;10.70;7.25;;;;;;;25.63;72.44;98007.38;5124170;27;20031;-81
2022/09/04 08:18:05;;;;;;;8.82;6.32;;;;;;;27.92;67.34;98016.06;5088163;28;20039;-81
2022/09/04 08:20:41;;;;;;;9.35;5.22;;;;;;;30.21;56.34;97998.88;5115413;27;20404;-80
2022/09/04 08:23:44;;;;;;;9.95;5.50;;;;;;;29.84;54.60;97983.69;5120227;27;20027;-81
2022/09/04 08:26:34;;;;;;;9.07;6.38;;;;;;;30.15;53.36;97970.19;5117560;27;20038;-80
2022/09/04 08:29:09;;;;;;;11.23;6.32;;;;;;;30.81;53.47;97979.47;5115963;27;20039;-82
2022/09/04 08:31:36;;;;;;;5.63;4.68;;;;;;;30.58;52.47;97979.88;5126350;27;20034;-81
2022/09/04 08:34:12;;;;;;;6.03;4.65;;;;;;;31.54;50.28;97975.59;5122981;28;20040;-81
2022/09/04 08:36:41;;;;;;;7.25;5.70;;;;;;;31.14;50.23;97968.41;5121451;28;20034;-81
2022/09/04 08:39:10;;;;;;;8.18;5.68;;;;;;;31.85;48.26;97949.94;5118453;28;20027;-81
2022/09/04 08:42:10;;;;;;;7.55;4.88;;;;;;;31.89;49.12;97962.28;5099902;28;20486;-82
2022/09/04 08:44:35;;;;;;;6.68;5.15;;;;;;;31.89;48.52;97961.44;5096151;28;20035;-82
2022/09/04 08:47:19;;;;;;;6.18;4.78;;;;;;;31.91;47.50;97954.59;5114530;28;20019;-82
2022/09/04 08:50:07;;;;;;;5.90;5.03;;;;;;;31.07;49.44;97943.53;5127170;28;20023;-81
2022/09/04 08:53:01;;;;;;;6.65;5.10;;;;;;;32.18;48.57;97947.88;5112977;28;20027;-82
2022/09/04 08:56:05;;;;;;;7.95;5.10;;;;;;;32.78;45.99;97940.03;5106207;28;20126;-81
2022/09/04 08:59:18;;;;;;;8.18;6.07;;;;;;;32.77;46.53;97940.25;5088838;27;20510;-82
2022/09/04 09:02:05;;;;;;;7.95;5.55;;;;;;;33.39;44.98;97934.56;5036604;28;20049;-82
2022/09/04 09:05:09;;;;;;;11.40;9.45;;;;;;;33.48;44.95;97930.41;5109680;28;20027;-82
2022/09/04 09:07:46;;;;;;;9.60;6.95;;;;;;;33.59;44.82;97917.69;5122836;28;20030;-82
2022/09/04 09:10:30;;;;;;;8.98;6.70;;;;;;;32.31;45.65;97897.09;5115517;28;20386;-81
2022/09/04 09:13:25;;;;;;;12.35;6.75;;;;;;;32.25;47.51;97922.91;5117027;28;20092;-80
2022/09/04 09:15:56;;;;;;;11.68;6.05;;;;;;;32.98;45.93;97914.91;5105076;28;20030;-83
2022/09/04 09:18:22;;;;;;;;;;;;;;;33.90;44.69;97923.06;5120047;28;20058;-82
2022/09/04 09:20:59;;;;;;;6.88;5.20;;;;;;;34.10;43.47;97908.97;5131291;27;19915;-82
2022/09/04 09:23:31;;;;;;;6.28;5.03;;;;;;;34.84;41.63;97897.31;5108438;28;20031;-82
2022/09/04 09:26:05;;;;;;;7.18;5.30;;;;;;;34.52;41.43;97893.97;5131722;27;20027;-82
2022/09/04 09:28:31;;;;;;;4.43;3.92;;;;;;;34.56;40.87;97888.78;5118343;27;20091;-82
2022/09/04 09:30:59;;;;;;;10.75;4.20;;;;;;;34.55;40.39;97893.50;5128202;27;20027;-83
2022/09/04 09:34:04;;;;;;;11.13;4.50;;;;;;;35.55;38.53;97877.59;5120815;27;20058;-82
2022/09/04 09:37:01;;;;;;;7.35;4.38;;;;;;;35.67;37.74;97884.00;5113794;27;20075;-82
2022/09/04 09:40:04;;;;;;;5.45;3.90;;;;;;;34.52;39.05;97887.56;5126190;27;20112;-82
2022/09/04 09:42:30;;;;;;;5.18;3.85;;;;;;;34.71;37.80;97884.50;5116943;27;20410;-82
2022/09/04 09:45:06;;;;;;;3.85;2.97;;;;;;;34.00;38.10;97873.38;5124877;27;20126;-81
2022/09/04 09:50:45;;;;;;;5.20;3.50;;;;;;;32.10;40.75;97855.91;5124650;27;20069;-82
2022/09/04 09:53:17;;;;;;;4.53;3.20;;;;;;;32.50;41.23;97865.63;5132150;27;20031;-82
2022/09/04 09:56:02;;;;;;;;;;;;;;;33.01;40.21;97872.88;5125254;27;20035;-82
2022/09/04 09:58:30;;;;;;;4.22;3.45;;;;;;;35.17;37.04;97868.94;5117007;27;20417;-82
2022/09/04 10:01:35;;;;;;;7.18;3.50;;;;;;;35.48;36.00;97843.47;5120850;27;20496;-81
2022/09/04 10:04:36;;;;;;;3.67;2.90;;;;;;;34.20;37.33;97845.34;5134679;27;20506;-82
2022/09/04 10:07:13;;;;;;;3.20;2.90;;;;;;;35.06;36.96;97845.56;5091663;27;20089;-81
2022/09/04 10:10:29;;;;;;;5.07;2.72;;;;;;;34.71;36.08;97828.03;5123867;27;20032;-81
2022/09/04 10:13:13;;;;;;;2.75;2.45;;;;;;;34.91;34.28;97830.47;5082138;28;20075;-81
2022/09/04 10:15:58;;;;;;;3.08;2.78;;;;;;;35.86;33.95;97826.19;5122752;27;20079;-84
2022/09/04 10:18:47;;;;;;;3.47;2.58;;;;;;;36.25;34.42;97842.00;5105164;27;20031;-83
2022/09/04 10:21:22;;;;;;;4.45;2.78;;;;;;;36.09;34.70;97839.16;5122255;27;20118;-81
2022/09/04 10:24:18;;;;;;;3.83;2.75;;;;;;;35.99;35.56;97841.75;5128044;27;20030;-81
2022/09/04 10:27:07;;;;;;;2.90;2.63;;;;;;;34.78;36.30;97843.53;5121209;27;20694;-83
2022/09/04 10:29:52;;;;;;;4.03;3.08;;;;;;;33.84;38.54;97837.09;5100004;27;20102;-81
2022/09/04 10:32:50;;;;;;;3.38;2.85;;;;;;;33.89;38.72;97851.13;5122914;27;20508;-81
2022/09/04 10:35:29;;;;;;;3.78;2.83;;;;;;;35.26;36.94;97851.63;5122787;27;20125;-82
2022/09/04 10:38:07;;;;;;;6.72;3.25;;;;;;;36.22;36.42;97853.63;5097290;28;20020;-83
2022/09/04 10:40:54;;;;;;;3.90;3.00;;;;;;;35.61;37.35;97825.66;5120840;27;20471;-83
2022/09/04 10:44:14;;;;;;;3.78;3.30;;;;;;;33.53;40.02;97816.75;5118277;27;20100;-82
2022/09/04 10:47:10;;;;;;;;;;;;;;;;;;;;;
2022/09/04 10:49:39;;;;;;;3.22;2.92;;;;;;;35.30;37.54;97854.75;5070613;28;20035;-82
2022/09/04 10:52:13;;;;;;;3.58;2.40;;;;;;;36.43;35.28;97838.97;5070647;28;20087;-81
2022/09/04 10:55:16;;;;;;;3.25;2.58;;;;;;;37.50;34.29;97838.75;5090973;27;20035;-82
2022/09/04 10:58:00;;;;;;;2.60;2.28;;;;;;;36.50;34.71;97816.50;5128016;27;20470;-81
2022/09/04 11:00:35;;;;;;;2.67;2.47;;;;;;;36.66;34.90;97812.03;5115734;27;20026;-82
2022/09/04 11:03:19;;;;;;;3.10;2.80;;;;;;;37.13;34.99;97846.00;5123266;27;20027;-82
2022/09/04 11:06:07;;;;;;;4.90;3.00;;;;;;;37.68;33.91;97832.81;5114262;27;20078;-82
2022/09/04 11:08:54;;;;;;;5.40;2.78;;;;;;;37.50;32.94;97819.19;5118122;27;20023;-81
2022/09/04 11:11:35;;;;;;;2.60;2.40;;;;;;;37.47;33.69;97814.94;5132863;27;20031;-82
2022/09/04 11:14:11;;;;;;;5.00;2.80;;;;;;;37.56;33.64;97804.19;5127142;27;20033;-82
2022/09/04 11:16:58;;;;;;;3.40;3.00;;;;;;;36.35;34.78;97799.50;5110238;27;20026;-82
2022/09/04 11:19:42;;;;;;;3.55;2.78;;;;;;;33.66;38.36;97793.56;5123067;27;20121;-80
2022/09/04 11:22:42;;;;;;;6.00;3.40;;;;;;;32.48;40.82;97789.34;5121771;27;20061;-80
2022/09/04 11:25:45;;;;;;;4.65;3.10;;;;;;;31.78;41.29;97809.91;5131069;27;20023;-79
2022/09/04 11:28:19;;;;;;;3.65;3.15;;;;;;;31.63;42.70;97818.50;5133693;27;20080;-81
2022/09/04 11:31:03;;;;;;;3.30;2.63;;;;;;;30.62;44.55;97814.53;5123665;27;20017;-81
2022/09/04 11:33:56;;;;;;;5.28;2.70;;;;;;;31.43;44.68;97829.66;5115966;27;20031;-81
2022/09/04 11:36:59;;;;;;;4.97;2.72;;;;;;;33.78;39.89;97839.72;5116566;27;20027;-81
2022/09/04 11:39:31;;;;;;;3.97;3.10;;;;;;;32.91;41.27;97812.41;5124628;27;20023;-81
2022/09/04 11:42:27;;;;;;;3.83;2.92;;;;;;;31.42;44.12;97811.34;5124127;27;20405;-82
2022/09/04 11:45:15;;;;;;;5.15;2.92;;;;;;;30.52;46.03;97834.31;5111767;27;20027;-82
2022/09/04 11:48:08;;;;;;;4.15;3.60;;;;;;;29.22;49.23;97849.50;5130130;27;20043;-82
2022/09/04 11:50:40;;;;;;;4.80;3.20;;;;;;;29.26;49.65;97853.53;5124647;27;20023;-83
2022/09/04 11:53:12;;;;;;;;;;;;;;;30.02;47.64;97854.25;5131417;27;20106;-81
2022/09/04 11:56:19;;;;;;;5.88;3.53;;;;;;;31.17;46.29;97843.56;5115387;27;19964;-82
2022/09/04 11:59:05;;;;;;;3.58;2.72;;;;;;;30.53;45.68;97822.22;5120449;27;20035;-82
2022/09/04 12:01:31;;;;;;;3.50;2.85;;;;;;;30.21;46.93;97838.78;5123863;27;20041;-82
2022/09/04 12:04:19;;;;;;;5.47;3.60;;;;;;;30.40;46.67;97844.31;5121529;27;20028;-83
2022/09/04 12:06:58;;;;;;;4.38;3.30;;;;;;;29.94;47.39;97840.63;5112921;28;20026;-83
2022/09/04 12:09:52;;;;;;;3.95;2.45;;;;;;;30.93;46.05;97828.50;5073923;28;20035;-81
2022/09/04 12:12:27;;;;;;;4.75;3.05;;;;;;;31.53;44.32;97824.50;5091109;28;20019;-83
2022/09/04 12:14:59;;;;;;;6.88;3.80;;;;;;;31.97;43.20;97831.06;5095174;28;20012;-83
2022/09/04 12:17:46;;;;;;;;;;;;;;;31.89;43.56;97823.03;5113302;28;20620;-83
2022/09/04 12:20:30;;;;;;;63.13;24.45;;;;;;;31.69;43.80;97815.69;5089821;28;19915;-83
2022/09/04 12:23:28;;;;;;;3.78;2.83;;;;;;;31.43;43.82;97810.28;5101950;28;20491;-80
2022/09/04 12:26:16;;;;;;;4.80;3.42;;;;;;;31.40;44.22;97819.03;5094542;28;20046;-82
2022/09/04 12:29:19;;;;;;;4.95;2.67;;;;;;;30.76;44.95;97819.00;5095114;28;20027;-81
2022/09/04 12:32:14;;;;;;;3.47;2.78;;;;;;;30.46;45.23;97814.97;5111807;28;20062;-81
2022/09/04 12:35:01;;;;;;;3.30;3.00;;;;;;;30.64;45.06;97816.03;5105877;28;20040;-81
2022/09/04 12:38:24;;;;;;;3.95;2.97;;;;;;;29.57;47.31;97823.56;5086900;28;20080;-82
2022/09/04 12:41:09;;;;;;;7.65;3.42;;;;;;;29.15;48.77;97829.31;5005781;28;20491;-81
2022/09/04 12:43:41;;;;;;;3.40;3.00;;;;;;;28.39;49.21;97817.34;5002435;28;20113;-81
2022/09/04 12:46:29;;;;;;;3.65;2.90;;;;;;;28.30;50.22;97840.56;5108163;28;20039;-82
2022/09/04 12:49:25;;;;;;;5.32;2.90;;;;;;;28.11;50.90;97849.53;5134064;27;20075;-81
2022/09/04 12:52:06;;;;;;;4.30;3.38;;;;;;;28.15;51.31;97839.81;5111174;28;20030;-80
2022/09/04 12:55:02;;;;;;;3.13;2.78;;;;;;;28.49;50.63;97834.38;5103171;27;20546;-80
2022/09/04 12:57:54;;;;;;;7.20;3.83;;;;;;;30.04;47.97;97839.19;5130551;27;20037;-79
2022/09/04 13:00:23;;;;;;;6.55;4.05;;;;;;;30.65;46.45;97830.69;5098397;27;20546;-81
2022/09/04 13:02:58;;;;;;;7.15;2.92;;;;;;;31.44;44.03;97825.78;5090216;27;20036;-81
2022/09/04 13:05:38;;;;;;;2.88;2.47;;;;;;;31.20;44.66;97818.25;5110299;27;20071;-81
2022/09/04 13:08:17;;;;;;;4.85;2.60;;;;;;;30.31;46.62;97822.59;5115754;27;20027;-81
2022/09/04 13:10:55;;;;;;;3.17;2.67;;;;;;;29.46;48.58;97824.16;5136657;27;20030;-82
2022/09/04 13:13:41;;;;;;;3.28;2.78;;;;;;;29.30;48.90;97835.56;5118965;27;20015;-82
2022/09/04 13:16:19;;;;;;;4.78;2.92;;;;;;;29.18;49.14;97837.16;5150712;27;20053;-83
2022/09/04 13:18:45;;;;;;;3.40;2.67;;;;;;;29.05;49.06;97831.59;5101240;27;20038;-81
2022/09/04 13:21:50;;;;;;;3.53;2.70;;;;;;;28.44;51.21;97828.63;5118386;27;20050;-82
2022/09/04 13:24:50;;;;;;;4.53;2.97;;;;;;;28.57;51.34;97840.78;5113702;27;20042;-81
2022/09/04 13:27:37;;;;;;;2.90;2.60;;;;;;;28.93;51.57;97839.59;5110869;27;20401;-82
2022/09/04 13:30:07;;;;;;;5.78;2.97;;;;;;;30.23;47.25;97826.44;5125982;27;20461;-81
2022/09/04 13:32:50;;;;;;;6.28;3.47;;;;;;;30.45;46.73;97819.69;5112964;27;20035;-82
2022/09/04 13:35:19;;;;;;;5.15;3.38;;;;;;;29.30;48.29;97809.88;5134755;27;20053;-81
2022/09/04 13:37:49;;;;;;;3.97;2.60;;;;;;;28.91;49.33;97813.28;5127022;27;20031;-81
2022/09/04 13:40:36;;;;;;;8.98;4.60;;;;;;;28.15;50.68;97814.22;5131688;27;20382;-82
2022/09/04 13:43:24;;;;;;;12.35;5.45;;;;;;;27.34;53.20;97830.06;5092968;27;20358;-81
2022/09/04 13:45:59;;;;;;;21.30;7.10;;;;;;;26.99;55.50;97843.72;5113293;27;20450;-82
2022/09/04 13:48:39;;;;;;;25.08;12.60;;;;;;;26.57;57.72;97860.84;5129540;27;20386;-81
2022/09/04 13:51:12;;;;;;;9.05;4.32;;;;;;;26.38;58.45;97857.59;5109570;27;20058;-82
2022/09/04 13:53:51;;;;;;;5.05;3.55;;;;;;;26.11;59.63;97869.13;5096586;27;20023;-81
2022/09/04 13:56:21;;;;;;;6.80;3.63;;;;;;;26.05;60.22;97875.38;5102518;27;20023;-82